首页
METAR-TAF:

METAR-TAF

机场 :

A.L. Mangham Jr. Regional Airport

Nacogdoches, 得克萨斯州, 美国

纬度: 31-35N, 经度: 094-43W, 海拔: 108米

当前天气观测

该预报发布于14分钟前的04:56 UTC
风速6节,风向东转东南
温度 6°C
湿度 61%
气压 1028 hPa
能見度: 16.1公里
天空无云

METAR: KOCH 220456Z AUTO 11006KT 10SM CLR 06/M01 A3035 RMK AO2 SLP284 T00561006 PWINO

时间: 23:10 (05:10 UTC)


TAF: 丢失

超过4000个机场的气象观测和天气预报(METAR&TAF报告)。

可查询的气象台以黄色和红色小点在地图上表示。

将鼠标移到小点上方,可查看气象台名称。

然后点击查看天气观测和预报。

如需切换地图:点击带黑十字的绿色按钮放大地图;点击带横线的绿色按钮缩小地图;或者点击绿色箭头查看邻近地区的地图。


METAR-TAF: